createdAt,value
2018-11-22T00:02:41.467Z,157.17
2018-11-22T00:05:11.757Z,154.53
2018-11-22T00:07:47.803Z,164.90
2018-11-22T00:12:54.152Z,169.13
2018-11-22T00:15:35.171Z,143.57
2018-11-22T00:18:12.541Z,160.47
2018-11-22T00:20:45.411Z,150.03
2018-11-22T00:23:26.084Z,150.67
2018-11-22T00:26:03.209Z,158.13
2018-11-22T00:31:10.929Z,159.63
2018-11-22T00:36:32.501Z,141.23
2018-11-22T00:39:06.226Z,158.47
2018-11-22T00:41:39.588Z,152.47
2018-11-22T00:44:15.797Z,156.13
2018-11-22T00:46:53.920Z,137.90
2018-11-22T00:49:30.940Z,130.40
2018-11-22T00:52:02.848Z,123.23
2018-11-22T00:54:45.510Z,147.30
2018-11-22T00:57:20.901Z,143.37
2018-11-22T01:02:32.792Z,143.30
2018-11-22T01:07:41.929Z,169.50
2018-11-22T01:10:18.595Z,139.03
2018-11-22T01:12:59.218Z,160.50
2018-11-22T01:15:32.539Z,141.27
2018-11-22T01:18:08.864Z,134.73
2018-11-22T01:20:38.580Z,141.50
2018-11-22T01:25:46.818Z,167.93
2018-11-22T01:28:20.720Z,136.43
2018-11-22T01:30:53.913Z,154.43
2018-11-22T01:33:27.880Z,143.13
2018-11-22T01:36:00.648Z,158.30
2018-11-22T01:38:30.403Z,132.13
2018-11-22T01:43:40.361Z,144.40
2018-11-22T01:46:19.654Z,139.97
2018-11-22T01:48:49.425Z,139.17
2018-11-22T01:51:19.172Z,137.80
2018-11-22T01:53:48.884Z,131.13
2018-11-22T01:56:18.679Z,146.70
2018-11-22T02:01:24.442Z,132.87
2018-11-22T02:04:04.221Z,140.37
2018-11-22T02:06:34.306Z,146.30
2018-11-22T02:09:05.363Z,148.67
2018-11-22T02:11:35.043Z,142.37
2018-11-22T02:14:04.862Z,160.23
2018-11-22T02:16:34.564Z,120.93
2018-11-22T02:19:04.285Z,148.33
2018-11-22T02:21:34.565Z,138.13
2018-11-22T02:24:05.137Z,150.23
2018-11-22T02:26:34.836Z,149.03
2018-11-22T02:29:04.561Z,145.53
2018-11-22T02:31:34.270Z,134.67
2018-11-22T02:34:04.080Z,135.53
2018-11-22T02:36:33.764Z,147.57
2018-11-22T02:39:03.599Z,121.93
2018-11-22T02:41:33.269Z,135.73
2018-11-22T02:44:06.285Z,120.23
2018-11-22T02:46:35.968Z,136.37
2018-11-22T02:49:06.014Z,126.70
2018-11-22T02:51:35.778Z,134.30
2018-11-22T02:54:05.495Z,127.73
2018-11-22T02:56:35.222Z,132.30
2018-11-22T02:59:05.775Z,138.43
2018-11-22T03:01:35.452Z,126.63
2018-11-22T03:04:05.236Z,160.60
2018-11-22T03:06:34.888Z,119.60
2018-11-22T03:09:05.029Z,133.80
2018-11-22T03:11:34.715Z,134.63
2018-11-22T03:14:04.407Z,124.37
2018-11-22T03:16:34.103Z,131.63
2018-11-22T03:19:03.873Z,127.73
2018-11-22T03:21:33.573Z,128.67
2018-11-22T03:24:03.332Z,127.00
2018-11-22T03:26:33.024Z,147.80
2018-11-22T03:29:02.677Z,136.17
2018-11-22T03:31:32.411Z,135.40
2018-11-22T03:34:02.390Z,151.50
2018-11-22T03:36:32.095Z,118.57
2018-11-22T03:39:01.840Z,115.70
2018-11-22T03:41:32.018Z,144.23
2018-11-22T03:44:01.802Z,113.30
2018-11-22T03:46:31.702Z,139.03
2018-11-22T03:51:33.535Z,119.20
2018-11-22T03:54:06.719Z,123.13
2018-11-22T03:56:43.540Z,130.63
2018-11-22T03:59:13.252Z,120.05
2018-11-22T04:01:42.978Z,126.13
2018-11-22T04:04:12.725Z,121.97
2018-11-22T04:06:43.301Z,117.27
2018-11-22T04:09:14.259Z,121.27
2018-11-22T04:11:46.461Z,124.07
2018-11-22T04:14:16.700Z,115.10
2018-11-22T04:16:46.379Z,128.45
2018-11-22T04:19:16.920Z,121.03
2018-11-22T04:24:17.471Z,119.27
2018-11-22T04:29:26.551Z,117.30
2018-11-22T04:31:57.823Z,131.10
2018-11-22T04:37:05.998Z,109.23
2018-11-22T04:44:49.923Z,113.40
2018-11-22T04:47:20.553Z,104.20
2018-11-22T04:49:50.793Z,109.07
2018-11-22T04:52:20.485Z,110.47
2018-11-22T04:54:50.134Z,104.20
2018-11-22T04:57:20.121Z,117.17
2018-11-22T04:59:50.092Z,115.07
2018-11-22T05:02:20.150Z,107.33
2018-11-22T05:04:49.855Z,113.43
2018-11-22T05:07:19.795Z,124.57
2018-11-22T05:12:20.420Z,124.13
2018-11-22T05:14:53.258Z,108.70
2018-11-22T05:17:23.362Z,105.57
2018-11-22T05:19:53.104Z,99.73
2018-11-22T05:22:23.062Z,108.23
2018-11-22T05:24:52.855Z,120.03
2018-11-22T05:27:22.535Z,126.77
2018-11-22T05:29:52.248Z,98.73
2018-11-22T05:32:22.102Z,109.27
2018-11-22T05:34:53.322Z,106.57
2018-11-22T05:40:26.073Z,115.77
2018-11-22T05:42:56.071Z,115.70
2018-11-22T05:45:27.467Z,113.03
2018-11-22T05:47:57.185Z,105.60
2018-11-22T05:50:28.259Z,100.47
2018-11-22T05:53:00.012Z,113.67
2018-11-22T05:55:30.337Z,103.83
2018-11-22T05:58:00.035Z,99.43
2018-11-22T06:00:32.072Z,112.67
2018-11-22T06:03:03.014Z,110.70
2018-11-22T06:05:33.988Z,114.53
2018-11-22T06:10:35.042Z,98.47
2018-11-22T06:13:05.553Z,110.10
2018-11-22T06:15:35.322Z,96.17
2018-11-22T06:18:05.067Z,100.30
2018-11-22T06:23:05.253Z,94.80
2018-11-22T06:38:01.531Z,123.77
2018-11-22T06:40:31.265Z,99.13
2018-11-22T06:43:02.229Z,102.43
2018-11-22T06:45:33.246Z,94.57
2018-11-22T06:48:02.892Z,106.70
2018-11-22T06:50:32.564Z,105.03
2018-11-22T06:53:02.544Z,105.33
2018-11-22T06:55:33.753Z,106.93
2018-11-22T06:58:03.491Z,118.20
2018-11-22T07:00:34.854Z,104.40
2018-11-22T07:03:08.827Z,110.33
2018-11-22T07:05:38.575Z,107.30
2018-11-22T07:08:08.356Z,98.93
2018-11-22T07:10:38.381Z,92.37
2018-11-22T07:13:08.462Z,108.63
2018-11-22T07:15:38.473Z,120.87
2018-11-22T07:18:08.929Z,174.33
2018-11-22T07:20:38.699Z,201.97
2018-11-22T07:23:08.439Z,335.57
2018-11-22T07:25:38.622Z,143.23
2018-11-22T07:28:08.722Z,129.00
2018-11-22T07:30:42.465Z,121.77
2018-11-22T07:33:10.076Z,117.07
2018-11-22T07:35:39.919Z,120.97
2018-11-22T07:38:10.393Z,118.93
2018-11-22T07:40:40.133Z,127.07
2018-11-22T08:06:28.497Z,142.67
2018-11-22T08:08:58.822Z,135.23
2018-11-22T08:18:30.349Z,137.00
2018-11-22T08:21:04.749Z,135.37
2018-11-22T08:23:30.141Z,143.73
2018-11-22T08:26:00.668Z,221.07
2018-11-22T08:28:30.371Z,147.90
2018-11-22T08:31:00.071Z,147.13
2018-11-22T08:33:29.843Z,139.93
2018-11-22T08:35:59.628Z,133.50
2018-11-22T08:38:29.485Z,126.20
2018-11-22T08:40:59.214Z,141.73
2018-11-22T08:43:29.047Z,118.97
2018-11-22T08:45:59.165Z,122.30
2018-11-22T08:48:28.957Z,142.70
2018-11-22T08:50:58.743Z,122.33
2018-11-22T08:53:28.535Z,125.60
2018-11-22T08:56:01.323Z,122.47
2018-11-22T08:58:32.344Z,135.60
2018-11-22T09:01:02.839Z,127.37
2018-11-22T12:17:42.500Z,100.47
2018-11-22T12:20:11.987Z,106.80
2018-11-22T12:22:42.139Z,90.50
2018-11-22T12:25:12.740Z,96.20
2018-11-22T12:27:42.122Z,114.00
2018-11-22T12:30:23.783Z,102.20
2018-11-22T12:32:58.575Z,103.63
2018-11-22T12:35:32.356Z,107.33
2018-11-22T12:38:06.363Z,112.90
2018-11-22T12:40:35.100Z,104.67
2018-11-22T12:43:03.706Z,107.67
2018-11-22T12:45:32.796Z,112.13
2018-11-22T12:48:01.262Z,110.90
2018-11-22T12:50:29.805Z,113.17
2018-11-22T12:52:58.665Z,94.20
2018-11-22T12:55:27.683Z,102.70
2018-11-22T12:57:56.821Z,101.30
2018-11-22T13:00:25.572Z,107.87
2018-11-22T13:02:54.242Z,108.10
2018-11-22T13:05:22.760Z,106.57
2018-11-22T13:07:51.343Z,109.07
2018-11-22T13:10:20.461Z,87.40
2018-11-22T13:12:50.049Z,92.80
2018-11-22T13:15:20.173Z,90.33
2018-11-22T13:17:48.792Z,93.27
2018-11-22T13:20:19.072Z,107.70
2018-11-22T13:22:48.795Z,89.87
2018-11-22T13:25:19.107Z,100.30
2018-11-22T13:27:47.727Z,93.50
2018-11-22T13:30:19.193Z,89.70
2018-11-22T13:32:48.412Z,88.37
2018-11-22T13:35:18.008Z,80.47
2018-11-22T13:37:48.508Z,78.60
2018-11-22T13:40:17.275Z,84.47
2018-11-22T13:42:46.757Z,80.73
2018-11-22T13:45:19.251Z,95.90
2018-11-22T13:47:49.302Z,84.73
2018-11-22T13:50:21.717Z,92.90
2018-11-22T13:52:52.445Z,82.13
2018-11-22T13:55:21.170Z,103.07
2018-11-22T13:57:50.347Z,100.30
2018-11-22T14:00:23.696Z,99.10
2018-11-22T14:02:55.987Z,90.77
2018-11-22T14:05:24.630Z,95.43
2018-11-22T14:07:53.258Z,106.50
2018-11-22T14:10:22.172Z,102.73
2018-11-22T14:12:51.075Z,88.10
2018-11-22T14:15:22.089Z,102.20
2018-11-22T14:17:51.805Z,93.67
2018-11-22T14:20:22.173Z,108.17
2018-11-22T14:22:50.970Z,114.93
2018-11-22T14:25:19.624Z,100.70
2018-11-22T14:27:49.215Z,118.13
2018-11-22T14:30:19.039Z,145.80
2018-11-22T14:32:48.394Z,107.80
2018-11-22T14:35:17.983Z,126.50
2018-11-22T14:37:46.621Z,115.60
2018-11-22T14:40:16.754Z,122.87
2018-11-22T14:42:46.288Z,127.90
2018-11-22T14:45:15.628Z,114.70
2018-11-22T14:47:45.374Z,115.60
2018-11-22T14:50:18.746Z,116.63
2018-11-22T14:52:52.393Z,116.53
2018-11-22T14:55:21.033Z,115.00
2018-11-22T14:57:50.028Z,104.17
2018-11-22T15:00:18.519Z,103.57
2018-11-22T15:02:47.975Z,88.63
2018-11-22T15:05:16.903Z,80.70
2018-11-22T15:07:45.821Z,63.93
2018-11-22T15:10:15.622Z,69.00
2018-11-22T15:12:45.264Z,69.37
2018-11-22T15:15:16.400Z,69.47
2018-11-22T15:17:44.878Z,65.60
2018-11-22T15:20:14.972Z,78.33
2018-11-22T15:22:44.297Z,66.93
2018-11-22T15:25:14.030Z,76.60
2018-11-22T15:27:43.122Z,73.50
2018-11-22T15:30:14.833Z,74.17
2018-11-22T15:32:43.325Z,76.43
2018-11-22T15:35:13.387Z,70.53
2018-11-22T15:37:42.275Z,76.23
2018-11-22T15:40:14.002Z,76.43
2018-11-22T15:42:42.957Z,76.03
2018-11-22T15:45:14.268Z,77.90
2018-11-22T15:47:42.914Z,79.70
2018-11-22T15:50:13.811Z,75.77
2018-11-22T15:52:42.907Z,87.60
2018-11-22T15:55:12.109Z,86.17
2018-11-22T15:57:45.318Z,80.07
2018-11-22T16:00:16.756Z,81.73
2018-11-22T16:02:46.088Z,86.93
2018-11-22T16:05:15.290Z,89.70
2018-11-22T16:07:44.096Z,90.00
2018-11-22T16:10:18.325Z,94.40
2018-11-22T16:12:47.683Z,82.00
2018-11-22T16:15:19.539Z,87.27
2018-11-22T16:17:48.139Z,83.63
2018-11-22T16:20:16.950Z,85.63
2018-11-22T16:22:45.609Z,70.10
2018-11-22T16:25:14.128Z,82.37
2018-11-22T16:27:42.786Z,80.67
2018-11-22T16:30:20.512Z,74.87
2018-11-22T16:32:49.065Z,81.37
2018-11-22T16:35:18.411Z,78.30
2018-11-22T16:37:47.040Z,73.07
2018-11-22T16:40:17.955Z,71.30
2018-11-22T16:42:47.489Z,73.33
2018-11-22T16:45:21.576Z,79.33
2018-11-22T16:47:50.180Z,72.07
2018-11-22T16:50:20.276Z,71.60
2018-11-22T16:52:49.014Z,87.37
2018-11-22T16:55:17.938Z,81.47
2018-11-22T16:57:49.609Z,83.93
2018-11-22T17:00:21.998Z,86.20
2018-11-22T17:02:51.856Z,81.33
2018-11-22T17:05:21.092Z,86.10
2018-11-22T17:07:49.853Z,68.83
2018-11-22T17:10:21.856Z,71.00
2018-11-22T17:12:51.880Z,90.10
2018-11-22T17:15:23.238Z,70.67
2018-11-22T17:17:52.318Z,72.83
2018-11-22T17:20:22.119Z,82.90
2018-11-22T17:22:51.320Z,76.97
2018-11-22T17:25:22.163Z,79.80
2018-11-22T17:27:52.266Z,84.57
2018-11-22T17:30:24.589Z,97.13
2018-11-22T17:32:53.271Z,96.57
2018-11-22T17:35:23.113Z,94.70
2018-11-22T17:37:53.001Z,84.20
2018-11-22T17:40:23.296Z,91.30
2018-11-22T17:42:56.689Z,84.67
2018-11-22T17:45:27.152Z,81.20
2018-11-22T17:47:56.342Z,81.23
2018-11-22T17:50:28.358Z,76.53
2018-11-22T17:52:57.492Z,78.53
2018-11-22T17:55:27.935Z,76.30
2018-11-22T17:57:56.939Z,85.17
2018-11-22T18:00:32.692Z,76.57
2018-11-22T18:03:03.156Z,78.73
2018-11-22T18:05:33.144Z,78.33
2018-11-22T18:08:02.183Z,74.07
2018-11-22T18:10:32.635Z,67.73
2018-11-22T18:13:01.920Z,74.63
2018-11-22T18:15:33.994Z,73.10
2018-11-22T18:18:03.335Z,87.87
2018-11-22T18:20:33.323Z,76.13
2018-11-22T18:23:03.338Z,74.03
2018-11-22T18:25:33.212Z,80.77
2018-11-22T18:28:01.850Z,87.97
2018-11-22T18:30:31.770Z,88.33
2018-11-22T18:33:02.019Z,83.47
2018-11-22T18:35:30.525Z,84.07
2018-11-22T18:37:59.088Z,97.90
2018-11-22T18:40:29.228Z,96.10
2018-11-22T18:42:58.776Z,81.93
2018-11-22T18:45:31.666Z,77.23
2018-11-22T18:48:01.124Z,81.30
2018-11-22T18:50:36.153Z,79.97
2018-11-22T18:53:04.826Z,84.20
2018-11-22T18:55:33.322Z,86.67
2018-11-22T18:58:03.415Z,98.00
2018-11-22T19:00:37.524Z,92.50
2018-11-22T19:03:08.326Z,87.73
2018-11-22T19:05:38.323Z,92.20
2018-11-22T19:08:07.491Z,109.87
2018-11-22T19:10:37.785Z,137.40
2018-11-22T19:13:07.779Z,119.87
2018-11-22T19:15:38.387Z,110.30
2018-11-22T19:18:08.234Z,95.03
2018-11-22T19:20:38.298Z,115.60
2018-11-22T19:23:07.772Z,105.07
2018-11-22T19:25:39.866Z,95.37
2018-11-22T19:28:09.821Z,107.70
2018-11-22T19:30:40.017Z,93.83
2018-11-22T19:33:09.985Z,99.50
2018-11-22T19:35:40.553Z,117.40
2018-11-22T19:38:09.099Z,97.97
2018-11-22T19:40:38.838Z,89.27
2018-11-22T19:43:09.848Z,108.87
2018-11-22T19:45:40.164Z,95.73
2018-11-22T19:48:09.075Z,92.17
2018-11-22T19:50:37.637Z,96.87
2018-11-22T19:53:09.742Z,100.57
2018-11-22T19:55:38.913Z,95.53
2018-11-22T19:58:09.535Z,88.37
2018-11-22T20:00:39.591Z,107.37
2018-11-22T20:03:08.896Z,91.27
2018-11-22T20:05:39.053Z,86.07
2018-11-22T20:08:09.125Z,81.43
2018-11-22T20:10:39.477Z,110.40
2018-11-22T20:13:08.222Z,89.40
2018-11-22T20:15:37.096Z,98.00
2018-11-22T20:18:08.061Z,96.90
2018-11-22T20:20:36.663Z,86.97
2018-11-22T20:23:06.174Z,112.27
2018-11-22T20:25:36.743Z,106.23
2018-11-22T20:28:05.869Z,92.63
2018-11-22T20:30:37.539Z,88.83
2018-11-22T20:33:06.232Z,87.17
2018-11-22T20:35:35.322Z,101.23
2018-11-22T20:38:04.471Z,92.20
2018-11-22T20:40:33.498Z,92.83
2018-11-22T20:43:02.319Z,102.97
2018-11-22T20:45:31.643Z,96.23
2018-11-22T20:48:01.679Z,90.80
2018-11-22T20:50:30.593Z,90.57
2018-11-22T20:53:00.203Z,85.63
2018-11-22T20:55:30.212Z,84.60
2018-11-22T20:58:00.097Z,105.87
2018-11-22T21:00:29.875Z,84.13
2018-11-22T21:03:01.256Z,82.40
2018-11-22T21:05:30.595Z,89.90
2018-11-22T21:07:59.127Z,80.83
2018-11-22T21:10:29.050Z,93.23
2018-11-22T21:12:57.782Z,93.10
2018-11-22T21:15:29.160Z,87.20
2018-11-22T21:17:59.236Z,90.70
2018-11-22T21:20:29.792Z,84.20
2018-11-22T21:22:58.309Z,97.47
2018-11-22T21:25:27.299Z,86.03
2018-11-22T21:27:56.227Z,89.80
2018-11-22T21:30:30.605Z,84.70
2018-11-22T21:32:59.748Z,84.93
2018-11-22T21:35:29.975Z,83.80
2018-11-22T21:37:59.601Z,80.03
2018-11-22T21:40:28.909Z,81.93
2018-11-22T21:42:57.497Z,91.17
2018-11-22T21:45:26.627Z,86.00
2018-11-22T21:47:55.217Z,81.67
2018-11-22T21:50:25.010Z,78.60
2018-11-22T21:52:53.513Z,80.67
2018-11-22T21:55:23.293Z,73.93
2018-11-22T21:57:52.861Z,66.77
2018-11-22T22:00:24.220Z,90.93
2018-11-22T22:02:55.092Z,76.87
2018-11-22T22:05:23.605Z,78.97
2018-11-22T22:07:52.122Z,65.37
2018-11-22T22:10:20.776Z,72.23
2018-11-22T22:12:49.555Z,82.60
2018-11-22T22:15:19.628Z,70.33
2018-11-22T22:17:48.467Z,77.80
2018-11-22T22:20:18.579Z,78.53
2018-11-22T22:22:47.053Z,75.67
2018-11-22T22:25:17.112Z,70.40
2018-11-22T22:27:46.080Z,78.90
2018-11-22T22:30:16.216Z,86.70
2018-11-22T22:32:45.509Z,73.13
2018-11-22T22:35:13.962Z,62.80
2018-11-22T22:37:42.634Z,63.87
2018-11-22T22:40:13.640Z,77.17
2018-11-22T22:42:43.324Z,70.23
2018-11-22T22:45:12.723Z,68.37
2018-11-22T22:47:41.509Z,78.97
2018-11-22T22:50:12.971Z,65.10
2018-11-22T22:52:41.460Z,65.07
2018-11-22T22:55:10.693Z,78.27
2018-11-22T22:57:39.633Z,74.60
2018-11-22T23:00:22.530Z,73.43
2018-11-22T23:02:59.934Z,60.37
2018-11-22T23:05:29.166Z,63.23
2018-11-22T23:07:57.669Z,71.13
2018-11-22T23:10:26.338Z,61.27
2018-11-22T23:12:55.521Z,63.33
2018-11-22T23:15:24.583Z,46.03
2018-11-22T23:17:53.279Z,44.70
2018-11-22T23:20:24.295Z,43.70
2018-11-22T23:22:53.029Z,41.50
2018-11-22T23:25:22.568Z,34.27
2018-11-22T23:27:51.119Z,44.03
2018-11-22T23:30:22.193Z,41.33
2018-11-22T23:32:53.978Z,34.67
2018-11-22T23:35:22.841Z,39.27
2018-11-22T23:37:51.834Z,43.17
2018-11-22T23:40:23.764Z,51.67
2018-11-22T23:42:52.347Z,40.37
2018-11-22T23:45:22.131Z,42.60
2018-11-22T23:47:50.963Z,35.73
2018-11-22T23:50:20.899Z,33.43
2018-11-22T23:52:50.651Z,28.73
2018-11-22T23:55:19.152Z,42.83
2018-11-22T23:57:47.701Z,37.40
